Terminal Aerodrome Forecast
Issued by NWS

Home | Current Version | Previous Version | Text Only | Print | Product List | Glossary On
Versions: 1 2 3 4 5 6 7 8 9 10 11 12 13 14 15 16 17 18
000
FTUS43 KMPX 220500
TAFAXN
TAF
KAXN 220520Z 2206/2306 33004KT P6SM SKC
     FM221800 02006KT P6SM FEW250
     FM222100 07007KT P6SM SCT250
     FM230000 12007KT P6SM BKN200
     FM230400 14011KT P6SM BKN120=

USA.gov is the U.S. government's official web portal to all federal, state and local government web resources and services.